MV Sea Wolf — WCW6738 — position and weather

sailwx.info

Track history (hours):
 
Tides and Currents Weather Stations Pressure Air Temp Water Temp Dewpoint Dewpoint Depression Visibility Wind Speed Wind Dir Waves Ship Positions

MV Sea Wolf

Owner: SEA WOLF MARINE TOWING & TRANSPORTATION, Bayonne, NJ. More information available from US FCC via Universal Licensing System and Coast Guard Vessel Documentation Center.

Last reported at 2016-Jul-25 04:33 UTC. Time now 2016-Jul-25 06:10 UTC.
Position N 40°41' W 074°05'.

Length 66 m; draft 10 m.

MMSI: 367002350.

Date/timePositionNaut miles runAvg speedWind from/ knotsBaromVisibWave heightAir tempDewpointWater temp
2016-Jul-25 04:33N 40°41' W 074°05'0 0.0
2016-Jul-25 03:33N 40°41' W 074°05'0 0.0
2016-Jul-25 02:33N 40°41' W 074°05'0 0.0
2016-Jul-25 01:33N 40°41' W 074°05'0 0.0
2016-Jul-25 00:34N 40°41' W 074°05'0 0.0
2016-Jul-24 23:34N 40°41' W 074°05'0 0.0
2016-Jul-24 22:34N 40°41' W 074°05'0 0.0
2016-Jul-24 21:34N 40°41' W 074°05'0 0.0
2016-Jul-24 20:33N 40°41' W 074°05'0 0.0
2016-Jul-24 19:33N 40°41' W 074°05'0 0.0
2016-Jul-24 18:27N 40°41' W 074°05'0 0.0
2016-Jul-24 17:32N 40°41' W 074°05'0 0.0
2016-Jul-24 16:33N 40°41' W 074°05'0 0.0
2016-Jul-24 15:32N 40°41' W 074°05'0 0.0
2016-Jul-24 14:34N 40°41' W 074°05'0 0.0
2016-Jul-24 13:33N 40°41' W 074°05'0 0.0
2016-Jul-24 12:33N 40°41' W 074°05'0 0.0
2016-Jul-24 11:33N 40°41' W 074°05'0 0.0
2016-Jul-24 10:33N 40°41' W 074°05'0 0.0
2016-Jul-24 09:33N 40°41' W 074°05'0 0.0
2016-Jul-24 08:33N 40°41' W 074°05'0 0.0
2016-Jul-24 07:33N 40°41' W 074°05'0 0.0
2016-Jul-24 06:33N 40°41' W 074°05'0 0.0
2016-Jul-24 05:33N 40°41' W 074°05'0 0.0
2016-Jul-24 04:33N 40°41' W 074°05'0 0.0
2016-Jul-24 03:33N 40°41' W 074°05'0 0.0
2016-Jul-24 02:33N 40°41' W 074°05'0 0.0
2016-Jul-24 01:33N 40°41' W 074°05'0 0.0
2016-Jul-24 00:33N 40°41' W 074°05'0 0.0
2016-Jul-23 23:33N 40°41' W 074°05'0 0.0
2016-Jul-23 22:33N 40°41' W 074°05'0 0.0
2016-Jul-23 21:33N 40°41' W 074°05'0 0.0
2016-Jul-23 20:33N 40°41' W 074°05'0 0.0
2016-Jul-23 19:34N 40°41' W 074°05'0 0.0
2016-Jul-23 18:34N 40°41' W 074°05'0 0.0
2016-Jul-23 17:33N 40°41' W 074°05'0 0.0
2016-Jul-23 16:33N 40°41' W 074°05'0 0.0
2016-Jul-23 15:33N 40°41' W 074°05'0 0.0
2016-Jul-23 14:33N 40°41' W 074°05'0 0.0
2016-Jul-23 13:33N 40°41' W 074°05'0 0.0
2016-Jul-23 12:33N 40°41' W 074°05'0 0.0
2016-Jul-23 11:33N 40°41' W 074°05'0 0.2
2016-Jul-23 10:33N 40°41' W 074°04'1 0.9
2016-Jul-23 09:33N 40°41' W 074°04'1 1.0
2016-Jul-23 08:33N 40°41' W 074°05'0 0.0
2016-Jul-23 07:33N 40°41' W 074°05'0 0.0
2016-Jul-23 06:33N 40°41' W 074°05'0 0.1
2016-Jul-23 04:34N 40°41' W 074°04'3 3.1
2016-Jul-23 03:33N 40°40' W 074°01'3 3.0
2016-Jul-23 02:33N 40°43' W 073°59'2 2.3
2016-Jul-23 01:32N 40°44' W 073°57'6 6.5
2016-Jul-23 00:33N 40°41' W 074°04'0 0.2
2016-Jul-22 23:33N 40°41' W 074°05'0 0.0
2016-Jul-22 22:34N 40°41' W 074°05'0 0.0
2016-Jul-22 21:33N 40°41' W 074°05'0 0.0
2016-Jul-22 20:33N 40°41' W 074°05'0 0.0
2016-Jul-22 19:33N 40°41' W 074°05'0 0.0
2016-Jul-22 18:34N 40°41' W 074°05'0 0.0
2016-Jul-22 17:33N 40°41' W 074°05'0 0.0
2016-Jul-22 16:33N 40°41' W 074°05'0 0.0
2016-Jul-22 15:34N 40°41' W 074°05'0 0.1
2016-Jul-22 14:33N 40°41' W 074°05'0 0.3
2016-Jul-22 13:33N 40°41' W 074°04'0 0.3
2016-Jul-22 12:33N 40°41' W 074°05'0 0.1
2016-Jul-22 11:33N 40°41' W 074°04'0 0.2
2016-Jul-22 10:33N 40°41' W 074°05'0 0.0
2016-Jul-22 09:34N 40°41' W 074°05'0 0.0
2016-Jul-22 08:33N 40°41' W 074°05'0 0.0
2016-Jul-22 07:33N 40°41' W 074°05'0 0.0
2016-Jul-22 05:34N 40°41' W 074°05'0 0.0
2016-Jul-22 04:33N 40°41' W 074°05'0 0.0
2016-Jul-22 03:34N 40°41' W 074°05'2 1.9
2016-Jul-22 02:34N 40°40' W 074°03'1 0.5
2016-Jul-22 01:34N 40°40' W 074°03'1 1.4
2016-Jul-22 00:33N 40°41' W 074°05'0 0.0
2016-Jul-21 23:33N 40°41' W 074°05'0 0.0
2016-Jul-21 22:33N 40°41' W 074°05'0 0.0
2016-Jul-21 21:33N 40°41' W 074°05'0 0.0
2016-Jul-21 20:33N 40°41' W 074°05'0 0.0
2016-Jul-21 19:34N 40°41' W 074°05'0 0.0
2016-Jul-21 18:34N 40°41' W 074°05'0 0.0
2016-Jul-21 17:34N 40°41' W 074°05'0 0.0
2016-Jul-21 16:34N 40°41' W 074°05'4 4.3
2016-Jul-21 15:34N 40°42' W 073°59'3 2.8
2016-Jul-21 14:33N 40°43' W 073°56'1 1.3
2016-Jul-21 13:32N 40°44' W 073°57'6 6.6
2016-Jul-21 12:34N 40°41' W 074°04'1 1.1
2016-Jul-21 11:34N 40°41' W 074°05'0 0.0
2016-Jul-21 10:33N 40°41' W 074°05'0 0.0
2016-Jul-21 09:33N 40°41' W 074°05'0 0.0
2016-Jul-21 08:33N 40°41' W 074°05'0 0.0
2016-Jul-21 07:33N 40°41' W 074°05'0 0.0
2016-Jul-21 06:33N 40°41' W 074°05'0 0.0
2016-Jul-21 05:34N 40°41' W 074°05'0 0.0
2016-Jul-21 04:33N 40°41' W 074°05'0 0.0
2016-Jul-21 03:34N 40°41' W 074°05'0 0.0
2016-Jul-21 02:33N 40°41' W 074°05'0 0.0
2016-Jul-21 01:34N 40°41' W 074°05'0 0.0
2016-Jul-21 00:33N 40°41' W 074°05'0 0.0
2016-Jul-20 23:34N 40°41' W 074°05'0 0.0
2016-Jul-20 22:33N 40°41' W 074°05'0 0.0
2016-Jul-20 21:33N 40°41' W 074°05'0 0.0
2016-Jul-20 20:34N 40°41' W 074°05'0 0.0
2016-Jul-20 19:33N 40°41' W 074°05'0 0.0
2016-Jul-20 18:34N 40°41' W 074°05'0 0.0
2016-Jul-20 17:33N 40°41' W 074°05'0 0.0
2016-Jul-20 16:33N 40°41' W 074°05'2 2.2
2016-Jul-20 15:34N 40°40' W 074°02'1 1.3
2016-Jul-20 14:33N 40°40' W 074°01'3 3.3
2016-Jul-20 13:33N 40°41' W 074°05'0 0.2
2016-Jul-20 12:33N 40°41' W 074°05'0 0.3
2016-Jul-20 11:34N 40°41' W 074°04'0 0.4
2016-Jul-20 10:33N 40°41' W 074°05'0 0.0
2016-Jul-20 09:34N 40°41' W 074°05'0 0.0
2016-Jul-20 08:33N 40°41' W 074°05'0 0.0
2016-Jul-20 07:33N 40°41' W 074°05'0 0.0
2016-Jul-20 06:34N 40°41' W 074°05'0 0.2
2016-Jul-20 05:33N 40°41' W 074°04'7 6.6
2016-Jul-20 04:33N 40°44' W 073°57'3 2.6
2016-Jul-20 03:33N 40°43' W 073°59'4 4.2
2016-Jul-20 02:33N 40°41' W 074°04'0 0.2
2016-Jul-20 01:33N 40°41' W 074°05'0 0.0
2016-Jul-20 00:33N 40°41' W 074°05'0 0.0
2016-Jul-19 23:33N 40°41' W 074°05'0 0.0
2016-Jul-19 22:33N 40°41' W 074°05'0 0.0
2016-Jul-19 21:33N 40°41' W 074°05'0 0.0
2016-Jul-19 20:33N 40°41' W 074°05'0 0.0
2016-Jul-19 19:33N 40°41' W 074°05'0 0.0
2016-Jul-19 18:33N 40°41' W 074°05'0 0.0
2016-Jul-19 17:33N 40°41' W 074°05'0 0.0
2016-Jul-19 16:33N 40°41' W 074°05'0 0.0
2016-Jul-19 15:33N 40°41' W 074°05'1 1.3
2016-Jul-19 14:33N 40°40' W 074°03'1 0.5
2016-Jul-19 13:33N 40°40' W 074°03'8 7.9
2016-Jul-19 12:33N 40°34' W 073°56'3 3.1
2016-Jul-19 11:32N 40°36' W 073°54'0 0.0
2016-Jul-19 10:33N 40°36' W 073°54'0 0.0
2016-Jul-19 09:33N 40°36' W 073°54'2 1.7
2016-Jul-19 08:33N 40°35' W 073°53'7 6.5
2016-Jul-19 07:33N 40°34' W 074°01'7 2.4
2016-Jul-19 04:34N 40°41' W 074°05'0 0.0
2016-Jul-19 03:33N 40°41' W 074°05'0 0.0
2016-Jul-19 02:34N 40°41' W 074°05'0 0.0
2016-Jul-19 01:33N 40°41' W 074°05'0 0.0
2016-Jul-19 00:34N 40°41' W 074°05'0 0.0
2016-Jul-18 23:34N 40°41' W 074°05'0 0.0
2016-Jul-18 22:34N 40°41' W 074°05'4 3.8
2016-Jul-18 21:34N 40°39' W 074°08'3 2.9
2016-Jul-18 20:32N 40°38' W 074°12'0 0.5
2016-Jul-18 19:32N 40°38' W 074°12'6 6.6
2016-Jul-18 18:34N 40°40' W 074°04'1 1.3
2016-Jul-18 17:34N 40°41' W 074°03'6 5.5
2016-Jul-18 16:33N 40°44' W 073°57'4 4.1
2016-Jul-18 15:33N 40°41' W 074°00'3 3.2
2016-Jul-18 14:33N 40°41' W 074°05'0 0.0
2016-Jul-18 13:33N 40°41' W 074°05'0 0.0
2016-Jul-18 12:33N 40°41' W 074°05'0 0.0
2016-Jul-18 11:33N 40°41' W 074°05'0 0.0
2016-Jul-18 10:33N 40°41' W 074°05'0 0.0
2016-Jul-18 09:33N 40°41' W 074°05'0 0.0
2016-Jul-18 08:33N 40°41' W 074°05'0 0.0
2016-Jul-18 07:33N 40°41' W 074°05'0 0.0
2016-Jul-18 06:33N 40°41' W 074°05'0 0.0
2016-Jul-18 05:33N 40°41' W 074°05'0 0.0
2016-Jul-18 04:33N 40°41' W 074°05'0 0.0
2016-Jul-18 03:33N 40°41' W 074°05'0 0.0
2016-Jul-18 02:33N 40°41' W 074°05'0 0.0
2016-Jul-18 01:33N 40°41' W 074°05'0 0.0
2016-Jul-18 00:33N 40°41' W 074°05'0 0.0
2016-Jul-17 23:33N 40°41' W 074°05'0 0.0
2016-Jul-17 22:33N 40°41' W 074°05'0 0.0
2016-Jul-17 21:33N 40°41' W 074°05'0 0.0
2016-Jul-17 20:33N 40°41' W 074°05'0 0.0
2016-Jul-17 19:33N 40°41' W 074°05'0 0.0
2016-Jul-17 18:33N 40°41' W 074°05'0 0.0
2016-Jul-17 17:33N 40°41' W 074°05'0 0.0
2016-Jul-17 16:33N 40°41' W 074°05'0 0.0
2016-Jul-17 15:33N 40°41' W 074°05'0 0.0
2016-Jul-17 14:33N 40°41' W 074°05'0 0.0
2016-Jul-17 13:33N 40°41' W 074°05'0 0.0
2016-Jul-17 12:33N 40°41' W 074°05'0 0.0
2016-Jul-17 11:32N 40°41' W 074°05'0 0.0
2016-Jul-17 10:33N 40°41' W 074°05'0 0.0
2016-Jul-17 09:25N 40°41' W 074°05'0 0.0
2016-Jul-17 08:33N 40°41' W 074°05'0 0.0
2016-Jul-17 07:33N 40°41' W 074°05'0 0.0
2016-Jul-17 06:33N 40°41' W 074°05'0 0.0
2016-Jul-17 04:33N 40°41' W 074°05'0 0.0
2016-Jul-17 03:33N 40°41' W 074°05'0 0.0
2016-Jul-17 02:33N 40°41' W 074°05'0 0.0
2016-Jul-17 01:33N 40°41' W 074°05'0 0.0
2016-Jul-17 00:33N 40°41' W 074°05'0 0.0
2016-Jul-16 23:33N 40°41' W 074°05'0 0.0
2016-Jul-16 22:33N 40°41' W 074°05'1 0.9
2016-Jul-16 21:33N 40°41' W 074°04'2 1.7
2016-Jul-16 20:33N 40°40' W 074°02'3 2.5
2016-Jul-16 19:33N 40°41' W 074°05'0 0.0
2016-Jul-16 18:33N 40°41' W 074°05'0 0.0
2016-Jul-16 17:33N 40°41' W 074°05'1 1.1
2016-Jul-16 16:33N 40°40' W 074°03'2 2.4
2016-Jul-16 15:34N 40°40' W 074°01'5 5.0
2016-Jul-16 14:33N 40°44' W 073°58'1 0.9
2016-Jul-16 13:33N 40°44' W 073°57'2 2.0
2016-Jul-16 12:32N 40°46' W 073°57'1 0.7
2016-Jul-16 10:23N 40°47' W 073°55'5 6.5
2016-Jul-16 09:33N 40°42' W 073°59'5 4.6
2016-Jul-16 08:33N 40°41' W 074°04'0 0.1
2016-Jul-16 07:34N 40°41' W 074°05'0 0.0
2016-Jul-16 06:34N 40°41' W 074°05'0 0.0
2016-Jul-16 04:34N 40°41' W 074°05'0 0.0
2016-Jul-16 03:34N 40°41' W 074°05'0 0.0
2016-Jul-16 02:34N 40°41' W 074°05'0 0.0
2016-Jul-16 01:34N 40°41' W 074°05'0 0.0
2016-Jul-16 00:34N 40°41' W 074°05'0 0.0
2016-Jul-15 23:34N 40°41' W 074°05'0 0.0
2016-Jul-15 22:34N 40°41' W 074°05'0 0.0
2016-Jul-15 21:34N 40°41' W 074°05'3 2.7
2016-Jul-15 20:34N 40°39' W 074°06'2 1.1
2016-Jul-15 18:33N 40°39' W 074°09'4 4.3
2016-Jul-15 17:34N 40°41' W 074°04'3 2.5
2016-Jul-15 16:34N 40°39' W 074°06'1 1.0
2016-Jul-15 15:34N 40°39' W 074°07'0 0.0
2016-Jul-15 14:33N 40°39' W 074°07'0 0.0
2016-Jul-15 13:34N 40°39' W 074°07'2 1.6
2016-Jul-15 12:33N 40°39' W 074°05'2 1.7
2016-Jul-15 11:34N 40°41' W 074°04'1 0.7
2016-Jul-15 10:34N 40°41' W 074°05'0 0.1
2016-Jul-15 09:34N 40°41' W 074°05'0 0.0
2016-Jul-15 08:33N 40°41' W 074°05'0 0.0
2016-Jul-15 07:34N 40°41' W 074°05'0 0.0
2016-Jul-15 06:33N 40°41' W 074°05'0 0.0
2016-Jul-15 05:33N 40°41' W 074°05'0 0.0
2016-Jul-15 04:34N 40°41' W 074°05'  
Track history (hours):
 
Tides and Currents Weather Stations Pressure Air Temp Water Temp Dewpoint Dewpoint Depression Visibility Wind Speed Wind Dir Waves Ship Positions

MV Sea Wolf

Owner: SEA WOLF MARINE TOWING & TRANSPORTATION, Bayonne, NJ. More information available from US FCC via Universal Licensing System and Coast Guard Vessel Documentation Center.

Last reported at 2016-Jul-25 04:33 UTC. Time now 2016-Jul-25 06:10 UTC.
Position N 40°41' W 074°05'.

Length 66 m; draft 10 m.

MMSI: 367002350.

Date/timePositionNaut miles runAvg speedWind from/ knotsBaromVisibWave heightAir tempDewpointWater temp
2016-Jul-25 04:33N 40°41' W 074°05'0 0.0
2016-Jul-25 03:33N 40°41' W 074°05'0 0.0
2016-Jul-25 02:33N 40°41' W 074°05'0 0.0
2016-Jul-25 01:33N 40°41' W 074°05'0 0.0
2016-Jul-25 00:34N 40°41' W 074°05'0 0.0
2016-Jul-24 23:34N 40°41' W 074°05'0 0.0
2016-Jul-24 22:34N 40°41' W 074°05'0 0.0
2016-Jul-24 21:34N 40°41' W 074°05'0 0.0
2016-Jul-24 20:33N 40°41' W 074°05'0 0.0
2016-Jul-24 19:33N 40°41' W 074°05'0 0.0
2016-Jul-24 18:27N 40°41' W 074°05'0 0.0
2016-Jul-24 17:32N 40°41' W 074°05'0 0.0
2016-Jul-24 16:33N 40°41' W 074°05'0 0.0
2016-Jul-24 15:32N 40°41' W 074°05'0 0.0
2016-Jul-24 14:34N 40°41' W 074°05'0 0.0
2016-Jul-24 13:33N 40°41' W 074°05'0 0.0
2016-Jul-24 12:33N 40°41' W 074°05'0 0.0
2016-Jul-24 11:33N 40°41' W 074°05'0 0.0
2016-Jul-24 10:33N 40°41' W 074°05'0 0.0
2016-Jul-24 09:33N 40°41' W 074°05'0 0.0
2016-Jul-24 08:33N 40°41' W 074°05'0 0.0
2016-Jul-24 07:33N 40°41' W 074°05'0 0.0
2016-Jul-24 06:33N 40°41' W 074°05'0 0.0
2016-Jul-24 05:33N 40°41' W 074°05'0 0.0
2016-Jul-24 04:33N 40°41' W 074°05'0 0.0
2016-Jul-24 03:33N 40°41' W 074°05'0 0.0
2016-Jul-24 02:33N 40°41' W 074°05'0 0.0
2016-Jul-24 01:33N 40°41' W 074°05'0 0.0
2016-Jul-24 00:33N 40°41' W 074°05'0 0.0
2016-Jul-23 23:33N 40°41' W 074°05'0 0.0
2016-Jul-23 22:33N 40°41' W 074°05'0 0.0
2016-Jul-23 21:33N 40°41' W 074°05'0 0.0
2016-Jul-23 20:33N 40°41' W 074°05'0 0.0
2016-Jul-23 19:34N 40°41' W 074°05'0 0.0
2016-Jul-23 18:34N 40°41' W 074°05'0 0.0
2016-Jul-23 17:33N 40°41' W 074°05'0 0.0
2016-Jul-23 16:33N 40°41' W 074°05'0 0.0
2016-Jul-23 15:33N 40°41' W 074°05'0 0.0
2016-Jul-23 14:33N 40°41' W 074°05'0 0.0
2016-Jul-23 13:33N 40°41' W 074°05'0 0.0
2016-Jul-23 12:33N 40°41' W 074°05'0 0.0
2016-Jul-23 11:33N 40°41' W 074°05'0 0.2
2016-Jul-23 10:33N 40°41' W 074°04'1 0.9
2016-Jul-23 09:33N 40°41' W 074°04'1 1.0
2016-Jul-23 08:33N 40°41' W 074°05'0 0.0
2016-Jul-23 07:33N 40°41' W 074°05'0 0.0
2016-Jul-23 06:33N 40°41' W 074°05'0 0.1
2016-Jul-23 04:34N 40°41' W 074°04'3 3.1
2016-Jul-23 03:33N 40°40' W 074°01'3 3.0
2016-Jul-23 02:33N 40°43' W 073°59'2 2.3
2016-Jul-23 01:32N 40°44' W 073°57'6 6.5
2016-Jul-23 00:33N 40°41' W 074°04'0 0.2
2016-Jul-22 23:33N 40°41' W 074°05'0 0.0
2016-Jul-22 22:34N 40°41' W 074°05'0 0.0
2016-Jul-22 21:33N 40°41' W 074°05'0 0.0
2016-Jul-22 20:33N 40°41' W 074°05'0 0.0
2016-Jul-22 19:33N 40°41' W 074°05'0 0.0
2016-Jul-22 18:34N 40°41' W 074°05'0 0.0
2016-Jul-22 17:33N 40°41' W 074°05'0 0.0
2016-Jul-22 16:33N 40°41' W 074°05'0 0.0
2016-Jul-22 15:34N 40°41' W 074°05'0 0.1
2016-Jul-22 14:33N 40°41' W 074°05'0 0.3
2016-Jul-22 13:33N 40°41' W 074°04'0 0.3
2016-Jul-22 12:33N 40°41' W 074°05'0 0.1
2016-Jul-22 11:33N 40°41' W 074°04'0 0.2
2016-Jul-22 10:33N 40°41' W 074°05'0 0.0
2016-Jul-22 09:34N 40°41' W 074°05'0 0.0
2016-Jul-22 08:33N 40°41' W 074°05'0 0.0
2016-Jul-22 07:33N 40°41' W 074°05'0 0.0
2016-Jul-22 05:34N 40°41' W 074°05'0 0.0
2016-Jul-22 04:33N 40°41' W 074°05'0 0.0
2016-Jul-22 03:34N 40°41' W 074°05'2 1.9
2016-Jul-22 02:34N 40°40' W 074°03'1 0.5
2016-Jul-22 01:34N 40°40' W 074°03'1 1.4
2016-Jul-22 00:33N 40°41' W 074°05'0 0.0
2016-Jul-21 23:33N 40°41' W 074°05'0 0.0
2016-Jul-21 22:33N 40°41' W 074°05'0 0.0
2016-Jul-21 21:33N 40°41' W 074°05'0 0.0
2016-Jul-21 20:33N 40°41' W 074°05'0 0.0
2016-Jul-21 19:34N 40°41' W 074°05'0 0.0
2016-Jul-21 18:34N 40°41' W 074°05'0 0.0
2016-Jul-21 17:34N 40°41' W 074°05'0 0.0
2016-Jul-21 16:34N 40°41' W 074°05'4 4.3
2016-Jul-21 15:34N 40°42' W 073°59'3 2.8
2016-Jul-21 14:33N 40°43' W 073°56'1 1.3
2016-Jul-21 13:32N 40°44' W 073°57'6 6.6
2016-Jul-21 12:34N 40°41' W 074°04'1 1.1
2016-Jul-21 11:34N 40°41' W 074°05'0 0.0
2016-Jul-21 10:33N 40°41' W 074°05'0 0.0
2016-Jul-21 09:33N 40°41' W 074°05'0 0.0
2016-Jul-21 08:33N 40°41' W 074°05'0 0.0
2016-Jul-21 07:33N 40°41' W 074°05'0 0.0
2016-Jul-21 06:33N 40°41' W 074°05'0 0.0
2016-Jul-21 05:34N 40°41' W 074°05'0 0.0
2016-Jul-21 04:33N 40°41' W 074°05'0 0.0
2016-Jul-21 03:34N 40°41' W 074°05'0 0.0
2016-Jul-21 02:33N 40°41' W 074°05'0 0.0
2016-Jul-21 01:34N 40°41' W 074°05'0 0.0
2016-Jul-21 00:33N 40°41' W 074°05'0 0.0
2016-Jul-20 23:34N 40°41' W 074°05'0 0.0
2016-Jul-20 22:33N 40°41' W 074°05'0 0.0
2016-Jul-20 21:33N 40°41' W 074°05'0 0.0
2016-Jul-20 20:34N 40°41' W 074°05'0 0.0
2016-Jul-20 19:33N 40°41' W 074°05'0 0.0
2016-Jul-20 18:34N 40°41' W 074°05'0 0.0
2016-Jul-20 17:33N 40°41' W 074°05'0 0.0
2016-Jul-20 16:33N 40°41' W 074°05'2 2.2
2016-Jul-20 15:34N 40°40' W 074°02'1 1.3
2016-Jul-20 14:33N 40°40' W 074°01'3 3.3
2016-Jul-20 13:33N 40°41' W 074°05'0 0.2
2016-Jul-20 12:33N 40°41' W 074°05'0 0.3
2016-Jul-20 11:34N 40°41' W 074°04'0 0.4
2016-Jul-20 10:33N 40°41' W 074°05'0 0.0
2016-Jul-20 09:34N 40°41' W 074°05'0 0.0
2016-Jul-20 08:33N 40°41' W 074°05'0 0.0
2016-Jul-20 07:33N 40°41' W 074°05'0 0.0
2016-Jul-20 06:34N 40°41' W 074°05'0 0.2
2016-Jul-20 05:33N 40°41' W 074°04'7 6.6
2016-Jul-20 04:33N 40°44' W 073°57'3 2.6
2016-Jul-20 03:33N 40°43' W 073°59'4 4.2
2016-Jul-20 02:33N 40°41' W 074°04'0 0.2
2016-Jul-20 01:33N 40°41' W 074°05'0 0.0
2016-Jul-20 00:33N 40°41' W 074°05'0 0.0
2016-Jul-19 23:33N 40°41' W 074°05'0 0.0
2016-Jul-19 22:33N 40°41' W 074°05'0 0.0
2016-Jul-19 21:33N 40°41' W 074°05'0 0.0
2016-Jul-19 20:33N 40°41' W 074°05'0 0.0
2016-Jul-19 19:33N 40°41' W 074°05'0 0.0
2016-Jul-19 18:33N 40°41' W 074°05'0 0.0
2016-Jul-19 17:33N 40°41' W 074°05'0 0.0
2016-Jul-19 16:33N 40°41' W 074°05'0 0.0
2016-Jul-19 15:33N 40°41' W 074°05'1 1.3
2016-Jul-19 14:33N 40°40' W 074°03'1 0.5
2016-Jul-19 13:33N 40°40' W 074°03'8 7.9
2016-Jul-19 12:33N 40°34' W 073°56'3 3.1
2016-Jul-19 11:32N 40°36' W 073°54'0 0.0
2016-Jul-19 10:33N 40°36' W 073°54'0 0.0
2016-Jul-19 09:33N 40°36' W 073°54'2 1.7
2016-Jul-19 08:33N 40°35' W 073°53'7 6.5
2016-Jul-19 07:33N 40°34' W 074°01'7 2.4
2016-Jul-19 04:34N 40°41' W 074°05'0 0.0
2016-Jul-19 03:33N 40°41' W 074°05'0 0.0
2016-Jul-19 02:34N 40°41' W 074°05'0 0.0
2016-Jul-19 01:33N 40°41' W 074°05'0 0.0
2016-Jul-19 00:34N 40°41' W 074°05'0 0.0
2016-Jul-18 23:34N 40°41' W 074°05'0 0.0
2016-Jul-18 22:34N 40°41' W 074°05'4 3.8
2016-Jul-18 21:34N 40°39' W 074°08'3 2.9
2016-Jul-18 20:32N 40°38' W 074°12'0 0.5
2016-Jul-18 19:32N 40°38' W 074°12'6 6.6
2016-Jul-18 18:34N 40°40' W 074°04'1 1.3
2016-Jul-18 17:34N 40°41' W 074°03'6 5.5
2016-Jul-18 16:33N 40°44' W 073°57'4 4.1
2016-Jul-18 15:33N 40°41' W 074°00'3 3.2
2016-Jul-18 14:33N 40°41' W 074°05'0 0.0
2016-Jul-18 13:33N 40°41' W 074°05'0 0.0
2016-Jul-18 12:33N 40°41' W 074°05'0 0.0
2016-Jul-18 11:33N 40°41' W 074°05'0 0.0
2016-Jul-18 10:33N 40°41' W 074°05'0 0.0
2016-Jul-18 09:33N 40°41' W 074°05'0 0.0
2016-Jul-18 08:33N 40°41' W 074°05'0 0.0
2016-Jul-18 07:33N 40°41' W 074°05'0 0.0
2016-Jul-18 06:33N 40°41' W 074°05'0 0.0
2016-Jul-18 05:33N 40°41' W 074°05'0 0.0
2016-Jul-18 04:33N 40°41' W 074°05'0 0.0
2016-Jul-18 03:33N 40°41' W 074°05'0 0.0
2016-Jul-18 02:33N 40°41' W 074°05'0 0.0
2016-Jul-18 01:33N 40°41' W 074°05'0 0.0
2016-Jul-18 00:33N 40°41' W 074°05'0 0.0
2016-Jul-17 23:33N 40°41' W 074°05'0 0.0
2016-Jul-17 22:33N 40°41' W 074°05'0 0.0
2016-Jul-17 21:33N 40°41' W 074°05'0 0.0
2016-Jul-17 20:33N 40°41' W 074°05'0 0.0
2016-Jul-17 19:33N 40°41' W 074°05'0 0.0
2016-Jul-17 18:33N 40°41' W 074°05'0 0.0
2016-Jul-17 17:33N 40°41' W 074°05'0 0.0
2016-Jul-17 16:33N 40°41' W 074°05'0 0.0
2016-Jul-17 15:33N 40°41' W 074°05'0 0.0
2016-Jul-17 14:33N 40°41' W 074°05'0 0.0
2016-Jul-17 13:33N 40°41' W 074°05'0 0.0
2016-Jul-17 12:33N 40°41' W 074°05'0 0.0
2016-Jul-17 11:32N 40°41' W 074°05'0 0.0
2016-Jul-17 10:33N 40°41' W 074°05'0 0.0
2016-Jul-17 09:25N 40°41' W 074°05'0 0.0
2016-Jul-17 08:33N 40°41' W 074°05'0 0.0
2016-Jul-17 07:33N 40°41' W 074°05'0 0.0
2016-Jul-17 06:33N 40°41' W 074°05'0 0.0
2016-Jul-17 04:33N 40°41' W 074°05'0 0.0
2016-Jul-17 03:33N 40°41' W 074°05'0 0.0
2016-Jul-17 02:33N 40°41' W 074°05'0 0.0
2016-Jul-17 01:33N 40°41' W 074°05'0 0.0
2016-Jul-17 00:33N 40°41' W 074°05'0 0.0
2016-Jul-16 23:33N 40°41' W 074°05'0 0.0
2016-Jul-16 22:33N 40°41' W 074°05'1 0.9
2016-Jul-16 21:33N 40°41' W 074°04'2 1.7
2016-Jul-16 20:33N 40°40' W 074°02'3 2.5
2016-Jul-16 19:33N 40°41' W 074°05'0 0.0
2016-Jul-16 18:33N 40°41' W 074°05'0 0.0
2016-Jul-16 17:33N 40°41' W 074°05'1 1.1
2016-Jul-16 16:33N 40°40' W 074°03'2 2.4
2016-Jul-16 15:34N 40°40' W 074°01'5 5.0
2016-Jul-16 14:33N 40°44' W 073°58'1 0.9
2016-Jul-16 13:33N 40°44' W 073°57'2 2.0
2016-Jul-16 12:32N 40°46' W 073°57'1 0.7
2016-Jul-16 10:23N 40°47' W 073°55'5 6.5
2016-Jul-16 09:33N 40°42' W 073°59'5 4.6
2016-Jul-16 08:33N 40°41' W 074°04'0 0.1
2016-Jul-16 07:34N 40°41' W 074°05'0 0.0
2016-Jul-16 06:34N 40°41' W 074°05'0 0.0
2016-Jul-16 04:34N 40°41' W 074°05'0 0.0
2016-Jul-16 03:34N 40°41' W 074°05'0 0.0
2016-Jul-16 02:34N 40°41' W 074°05'0 0.0
2016-Jul-16 01:34N 40°41' W 074°05'0 0.0
2016-Jul-16 00:34N 40°41' W 074°05'0 0.0
2016-Jul-15 23:34N 40°41' W 074°05'0 0.0
2016-Jul-15 22:34N 40°41' W 074°05'0 0.0
2016-Jul-15 21:34N 40°41' W 074°05'3 2.7
2016-Jul-15 20:34N 40°39' W 074°06'2 1.1
2016-Jul-15 18:33N 40°39' W 074°09'4 4.3
2016-Jul-15 17:34N 40°41' W 074°04'3 2.5
2016-Jul-15 16:34N 40°39' W 074°06'1 1.0
2016-Jul-15 15:34N 40°39' W 074°07'0 0.0
2016-Jul-15 14:33N 40°39' W 074°07'0 0.0
2016-Jul-15 13:34N 40°39' W 074°07'2 1.6
2016-Jul-15 12:33N 40°39' W 074°05'2 1.7
2016-Jul-15 11:34N 40°41' W 074°04'1 0.7
2016-Jul-15 10:34N 40°41' W 074°05'0 0.1
2016-Jul-15 09:34N 40°41' W 074°05'0 0.0
2016-Jul-15 08:33N 40°41' W 074°05'0 0.0
2016-Jul-15 07:34N 40°41' W 074°05'0 0.0
2016-Jul-15 06:33N 40°41' W 074°05'0 0.0
2016-Jul-15 05:33N 40°41' W 074°05'0 0.0
2016-Jul-15 04:34N 40°41' W 074°05'  

Dump ship's entire track history